Time;durP1;ratioP1;P1;durP2;ratioP2;P2;SDS_P1;SDS_P2;PMS_P1;PMS_P2;Temp;Humidity;BMP_temperature;BMP_pressure;BME280_temperature;BME280_humidity;BME280_pressure;Samples;Min_cycle;Max_cycle;Signal;HPM_P1;HPM_P2
2024/03/25 00:00:29;;;;;;;;;34.00;28.00;;;;;3.69;100.00;98459.31;6304708;20;2850270;-52
2024/03/25 00:02:56;;;;;;;;;27.00;24.00;;;;;3.72;100.00;98467.09;6268789;20;2500286;-52
2024/03/25 00:05:25;;;;;;;;;34.00;27.00;;;;;3.88;100.00;98468.94;6268476;20;2500333;-48
2024/03/25 00:07:52;;;;;;;;;28.50;24.50;;;;;3.73;100.00;98466.16;6270942;20;2500346;-50
2024/03/25 00:10:20;;;;;;;;;27.33;25.33;;;;;3.80;100.00;98461.38;6272440;20;3583667;-52
2024/03/25 00:12:52;;;;;;;;;23.50;23.50;;;;;3.88;100.00;98466.28;6269784;20;2500716;-49
2024/03/25 00:15:20;;;;;;;;;28.00;24.50;;;;;4.01;100.00;98464.69;6268710;20;2500331;-49
2024/03/25 00:17:48;;;;;;;;;29.33;22.67;;;;;4.03;100.00;98460.16;6271486;20;3591940;-51
2024/03/25 00:20:15;;;;;;;;;26.67;22.00;;;;;3.82;100.00;98455.97;6270539;20;3586099;-49
2024/03/25 00:22:42;;;;;;;;;24.00;20.00;;;;;3.77;100.00;98450.09;6272705;20;2828459;-51
2024/03/25 00:25:10;;;;;;;;;16.00;15.00;;;;;3.91;100.00;98461.66;6273218;20;3540926;-50
2024/03/25 00:27:36;;;;;;;;;22.50;22.50;;;;;4.02;100.00;98461.06;6300860;20;2498259;-51
2024/03/25 00:30:04;;;;;;;;;28.00;24.00;;;;;3.69;100.00;98458.47;6273016;20;2834686;-51
2024/03/25 00:32:34;;;;;;;;;18.50;18.17;;;;;3.96;100.00;98450.78;6295914;20;2824334;-49
2024/03/25 00:35:00;;;;;;;;;23.50;20.00;;;;;3.90;100.00;98457.31;6300520;20;2500364;-48
2024/03/25 00:37:28;;;;;;;;;14.67;14.67;;;;;3.72;100.00;98448.53;6272429;20;3546228;-50
2024/03/25 00:39:55;;;;;;;;;26.50;22.00;;;;;3.81;100.00;98451.63;6301568;20;2500270;-51
2024/03/25 00:42:22;;;;;;;;;26.00;21.67;;;;;3.66;100.00;98447.97;6273148;20;3571249;-52
2024/03/25 00:44:49;;;;;;;;;27.00;22.00;;;;;3.51;100.00;98444.38;6303571;20;2831526;-50
2024/03/25 00:47:16;;;;;;;;;24.33;20.33;;;;;3.66;100.00;98443.56;6271609;20;3583616;-49
2024/03/25 00:49:44;;;;;;;;;18.00;18.00;;;;;3.79;100.00;98442.88;6302457;20;3558706;-53
2024/03/25 00:52:11;;;;;;;;;26.33;21.67;;;;;3.45;100.00;98444.66;6302617;20;2820162;-50
2024/03/25 00:54:38;;;;;;;;;21.00;18.50;;;;;3.73;100.00;98439.63;6303172;20;2819015;-48
2024/03/25 00:57:05;;;;;;;;;18.00;16.33;;;;;3.70;100.00;98437.13;6270716;20;3562795;-51
2024/03/25 00:59:33;;;;;;;;;18.33;14.33;;;;;3.63;100.00;98443.69;6302164;20;3530527;-49
2024/03/25 01:02:00;;;;;;;;;19.33;14.33;;;;;3.61;100.00;98445.59;6301202;20;3550305;-50
2024/03/25 01:04:28;;;;;;;;;20.67;18.33;;;;;3.41;100.00;98440.47;6299907;20;3556534;-48
2024/03/25 01:06:56;;;;;;;;;14.00;13.33;;;;;3.66;100.00;98451.53;6301940;20;3533698;-48
2024/03/25 01:09:25;;;;;;;;;18.33;14.67;;;;;3.60;100.00;98451.81;6271793;20;2809766;-47
2024/03/25 01:11:52;;;;;;;;;18.67;17.00;;;;;3.81;100.00;98447.16;6302976;20;3549369;-51
2024/03/25 01:14:19;;;;;;;;;21.00;15.00;;;;;3.37;100.00;98452.19;6301853;20;2811802;-48
2024/03/25 01:16:47;;;;;;;;;19.33;14.67;;;;;3.51;100.00;98445.22;6271640;20;3556534;-51
2024/03/25 01:19:14;;;;;;;;;11.00;11.00;;;;;3.46;100.00;98446.41;6299501;20;2782566;-51
2024/03/25 01:21:44;;;;;;;;;12.14;10.14;;;;;3.60;100.00;98449.16;6311494;20;1820901;-47
2024/03/25 01:24:10;;;;;;;;;15.50;14.00;;;;;3.35;100.00;98440.81;6303627;20;2792978;-52
2024/03/25 01:26:37;;;;;;;;;16.00;13.00;;;;;3.46;100.00;98439.31;6270560;20;2794023;-52
2024/03/25 01:29:06;;;;;;;;;12.20;12.00;;;;;3.30;100.00;98444.56;6296347;20;2809643;-51
2024/03/25 01:31:34;;;;;;;;;14.20;11.00;;;;;3.84;100.00;98438.19;6296740;20;2782726;-51
2024/03/25 01:34:02;;;;;;;;;17.80;15.00;;;;;3.87;100.00;98441.53;6300884;20;2822204;-49
2024/03/25 01:36:30;;;;;;;;;6.50;6.50;;;;;3.89;100.00;98439.63;6295002;20;1813843;-50
2024/03/25 01:38:56;;;;;;;;;13.00;13.00;;;;;3.76;100.00;98443.03;6306921;20;2804482;-48
2024/03/25 01:41:24;;;;;;;;;11.50;9.25;;;;;3.87;100.00;98443.31;6293294;20;1814994;-51
2024/03/25 01:43:53;;;;;;;;;9.00;9.00;;;;;4.00;100.00;98441.72;6333515;20;2743034;-51
2024/03/25 01:46:21;;;;;;;;;8.00;7.00;;;;;4.04;100.00;98443.25;6309504;20;2748220;-49
2024/03/25 01:48:50;;;;;;;;;15.50;14.00;;;;;4.15;100.00;98440.88;6306458;20;2792988;-49
2024/03/25 01:51:20;;;;;;;;;13.50;8.00;;;;;4.26;100.00;98436.75;6294889;20;1809534;-48
2024/03/25 01:53:48;;;;;;;;;9.75;7.75;;;;;4.30;100.00;98444.47;6321772;20;1814061;-50
2024/03/25 01:56:17;;;;;;;;;7.00;7.00;;;;;4.36;100.00;98444.13;6327282;20;1803511;-52
2024/03/25 01:58:47;;;;;;;;;6.83;6.50;;;;;4.48;100.00;98442.59;6347488;20;1806578;-47
2024/03/25 02:01:14;;;;;;;;;9.50;7.00;;;;;4.49;100.00;98438.97;6298770;20;1819095;-52
2024/03/25 02:03:43;;;;;;;;;13.00;10.00;;;;;4.16;100.00;98437.28;6331142;20;2776464;-51
2024/03/25 02:06:15;;;;;;;;;10.00;7.00;;;;;4.11;100.00;98444.66;6278327;20;2732613;-51
2024/03/25 02:08:44;;;;;;;;;7.00;5.75;;;;;4.18;100.00;98439.84;6327866;20;1819706;-52
2024/03/25 02:11:13;;;;;;;;;9.75;6.75;;;;;3.94;100.00;98442.06;6327601;20;1818971;-53
2024/03/25 02:13:40;;;;;;;;;7.00;7.00;;;;;4.11;100.00;98439.34;6309481;20;2735828;-51
2024/03/25 02:16:07;;;;;;;;;10.00;9.00;;;;;4.14;100.00;98438.31;6307068;20;2760709;-48
2024/03/25 02:18:35;;;;;;;;;8.25;6.00;;;;;3.95;100.00;98433.16;6295031;20;1824241;-52
2024/03/25 02:21:01;;;;;;;;;7.00;6.50;;;;;4.03;100.00;98441.56;6308711;20;2749311;-48
2024/03/25 02:23:29;;;;;;;;;8.75;6.50;;;;;3.96;100.00;98445.50;6325274;20;1816053;-53
2024/03/25 02:25:56;;;;;;;;;7.00;7.00;;;;;3.95;100.00;98449.94;6307779;20;2732002;-49
2024/03/25 02:28:23;;;;;;;;;10.50;9.00;;;;;3.70;100.00;98447.75;6324950;20;1820106;-49
2024/03/25 02:30:50;;;;;;;;;10.00;7.00;;;;;3.68;100.00;98446.97;6305809;20;2760662;-52
2024/03/25 02:33:16;;;;;;;;;7.00;6.00;;;;;3.66;100.00;98448.88;6277849;20;2747233;-53
2024/03/25 02:35:44;;;;;;;;;9.00;7.00;;;;;3.86;100.00;98453.09;6306272;20;2743057;-47
2024/03/25 02:38:12;;;;;;;;;10.00;6.00;;;;;3.87;100.00;98462.78;6324905;20;1826576;-47
2024/03/25 02:40:39;;;;;;;;;7.00;5.25;;;;;3.90;100.00;98452.00;6325527;20;1823350;-51
2024/03/25 02:43:07;;;;;;;;;6.75;6.00;;;;;3.68;100.00;98457.59;6324392;20;1820229;-51
2024/03/25 02:45:34;;;;;;;;;7.00;7.00;;;;;3.82;100.00;98463.94;6322701;20;1818780;-52
2024/03/25 02:48:01;;;;;;;;;8.00;6.00;;;;;3.76;100.00;98459.81;6307964;20;2750400;-48
2024/03/25 02:50:28;;;;;;;;;7.00;6.00;;;;;3.81;100.00;98459.59;6325295;20;1816017;-51
2024/03/25 02:52:56;;;;;;;;;6.25;5.25;;;;;3.91;100.00;98458.16;6324230;20;1823427;-49
2024/03/25 02:55:22;;;;;;;;;9.50;6.00;;;;;3.60;100.00;98457.13;6305573;20;2759684;-48
2024/03/25 02:57:50;;;;;;;;;5.75;5.75;;;;;3.62;100.00;98457.91;6326932;20;1821175;-49
2024/03/25 03:00:17;;;;;;;;;5.00;4.50;;;;;3.39;100.00;98455.63;6322984;20;1825400;-47
2024/03/25 03:02:44;;;;;;;;;8.50;6.00;;;;;3.71;100.00;98449.47;6308046;20;2756576;-48
2024/03/25 03:05:10;;;;;;;;;8.00;7.00;;;;;3.36;100.00;98459.28;6305923;20;2737805;-46
2024/03/25 03:07:38;;;;;;;;;6.00;6.00;;;;;3.44;100.00;98457.09;6325361;20;1823377;-49
2024/03/25 03:10:06;;;;;;;;;7.00;7.00;;;;;3.24;100.00;98460.78;6325975;20;1817090;-50
2024/03/25 03:12:33;;;;;;;;;10.75;6.00;;;;;3.60;100.00;98454.47;6323587;20;1829776;-48
2024/03/25 03:15:01;;;;;;;;;10.25;9.25;;;;;3.24;100.00;98463.44;6322115;20;1812872;-50
2024/03/25 03:17:28;;;;;;;;;7.50;6.25;;;;;3.20;100.00;98453.91;6324927;20;1813039;-46
2024/03/25 03:19:55;;;;;;;;;7.75;7.75;;;;;3.34;100.00;98457.66;6320959;20;1810744;-48
2024/03/25 03:22:22;;;;;;;;;9.00;7.00;;;;;3.17;100.00;98462.03;6309297;20;2738908;-49
2024/03/25 03:24:49;;;;;;;;;5.67;5.67;;;;;2.94;100.00;98470.28;6321752;20;1821229;-47
2024/03/25 03:27:17;;;;;;;;;10.50;8.25;;;;;2.98;100.00;98461.25;6323521;20;1814931;-50
2024/03/25 03:29:44;;;;;;;;;14.00;9.50;;;;;2.89;100.00;98456.41;6305811;20;2760890;-47
2024/03/25 03:32:11;;;;;;;;;9.25;8.75;;;;;2.82;100.00;98453.22;6292974;20;1810834;-49
2024/03/25 03:34:38;;;;;;;;;10.50;9.25;;;;;2.76;100.00;98448.22;6320681;20;1814086;-47
2024/03/25 03:37:05;;;;;;;;;12.00;8.50;;;;;2.76;100.00;98451.72;6306930;20;2769503;-46
2024/03/25 03:39:32;;;;;;;;;9.75;7.00;;;;;3.01;100.00;98461.09;6291443;20;1815022;-48
2024/03/25 03:41:59;;;;;;;;;12.00;9.50;;;;;3.29;100.00;98465.84;6302782;20;2779744;-51
2024/03/25 03:44:26;;;;;;;;;6.25;6.00;;;;;3.42;100.00;98468.72;6294641;20;1821394;-51
2024/03/25 03:46:53;;;;;;;;;7.00;7.00;;;;;3.19;100.00;98476.09;6306100;20;2752408;-49
2024/03/25 03:49:20;;;;;;;;;6.00;6.00;;;;;3.12;100.00;98473.81;6322998;20;1818827;-49
2024/03/25 03:51:47;;;;;;;;;16.00;8.00;;;;;3.19;100.00;98489.34;6322112;20;1828538;-47
2024/03/25 03:54:14;;;;;;;;;7.75;6.00;;;;;3.26;100.00;98485.41;6293684;20;1818658;-49
2024/03/25 03:56:41;;;;;;;;;9.25;6.50;;;;;3.29;100.00;98476.44;6320347;20;1820206;-49
2024/03/25 03:59:08;;;;;;;;;12.50;8.00;;;;;3.56;100.00;98484.78;6306570;20;2756575;-46
2024/03/25 04:01:35;;;;;;;;;18.50;7.00;;;;;3.77;100.00;98487.25;6303661;20;2785823;-47
2024/03/25 04:04:02;;;;;;;;;10.25;9.00;;;;;3.49;100.00;98491.34;6292165;20;1831389;-51
2024/03/25 04:06:29;;;;;;;;;10.00;8.00;;;;;3.35;100.00;98497.38;6304962;20;2767086;-49
2024/03/25 04:08:56;;;;;;;;;13.00;10.00;;;;;3.26;100.00;98496.03;6272480;20;2779562;-50
2024/03/25 04:11:22;;;;;;;;;12.00;8.00;;;;;2.92;100.00;98498.66;6276103;20;2762818;-50
2024/03/25 04:13:50;;;;;;;;;12.25;10.50;;;;;3.05;100.00;98500.66;6322155;20;1819192;-50
2024/03/25 04:16:17;;;;;;;;;9.00;9.00;;;;;3.19;100.00;98502.59;6300634;20;2739861;-49
2024/03/25 04:18:44;;;;;;;;;11.00;10.00;;;;;3.14;100.00;98507.28;6303380;20;2767069;-52
2024/03/25 04:21:14;;;;;;;;;14.50;13.25;;;;;3.23;100.00;98513.91;6312104;20;2519053;-47
2024/03/25 04:23:41;;;;;;;;;13.50;12.50;;;;;3.37;100.00;98511.44;6299787;20;2776457;-46
2024/03/25 04:26:08;;;;;;;;;12.00;8.00;;;;;3.41;100.00;98518.28;6289885;20;1822199;-46
2024/03/25 04:28:35;;;;;;;;;11.00;11.00;;;;;3.47;100.00;98523.25;6304127;20;2793157;-48
2024/03/25 04:31:02;;;;;;;;;14.00;12.00;;;;;3.31;100.00;98522.31;6268962;20;2787806;-48
2024/03/25 04:33:29;;;;;;;;;10.50;10.50;;;;;3.51;100.00;98523.97;6269914;20;2796092;-50
2024/03/25 04:35:55;;;;;;;;;18.00;13.50;;;;;3.38;100.00;98526.41;6269257;20;2804520;-50
2024/03/25 04:38:22;;;;;;;;;11.00;11.00;;;;;3.23;100.00;98520.06;6272695;20;2785731;-50
2024/03/25 04:40:51;;;;;;;;;14.00;10.80;;;;;3.59;100.00;98505.84;6294069;20;2791958;-47
2024/03/25 04:43:17;;;;;;;;;15.00;10.00;;;;;3.73;100.00;98519.25;6273237;20;2779440;-48
2024/03/25 04:45:45;;;;;;;;;11.25;9.50;;;;;3.50;100.00;98524.91;6287919;20;1817044;-50
2024/03/25 04:48:13;;;;;;;;;11.40;10.40;;;;;3.39;100.00;98514.84;6327521;20;2777435;-48
2024/03/25 04:50:40;;;;;;;;;15.00;10.00;;;;;3.65;100.00;98518.78;6273578;20;2787793;-50
2024/03/25 04:53:06;;;;;;;;;6.00;6.00;;;;;3.51;100.00;98516.00;6274551;20;2746226;-52
2024/03/25 04:55:33;;;;;;;;;17.00;11.00;;;;;3.59;100.00;98527.09;6300030;20;2787885;-48
2024/03/25 04:58:00;;;;;;;;;10.00;9.00;;;;;3.51;100.00;98518.66;6291132;20;1808320;-46
2024/03/25 05:00:27;;;;;;;;;12.50;10.00;;;;;3.72;100.00;98527.31;6302292;20;2781578;-51
2024/03/25 05:02:56;;;;;;;;;12.33;11.50;;;;;3.82;100.00;98522.34;6312616;20;1812834;-49
2024/03/25 05:05:24;;;;;;;;;15.00;12.00;;;;;4.17;100.00;98523.13;6270349;20;2791996;-46
2024/03/25 05:07:50;;;;;;;;;15.00;10.00;;;;;5.75;100.00;98527.38;6272631;20;2773202;-49
2024/03/25 05:10:17;;;;;;;;;12.00;10.00;;;;;6.95;100.00;98530.53;6271554;20;2771150;-48
2024/03/25 05:12:44;;;;;;;;;8.00;7.00;;;;;6.13;100.00;98529.50;6275336;20;2741043;-47
2024/03/25 05:15:11;;;;;;;;;12.00;11.00;;;;;6.54;100.00;98536.72;6299598;20;2785728;-48
2024/03/25 05:17:38;;;;;;;;;2.50;2.00;;;;;8.00;95.38;98533.22;6292766;20;1822273;-47
2024/03/25 05:20:05;;;;;;;;;7.00;7.00;;;;;6.47;100.00;98536.25;6302936;20;2745887;-49
2024/03/25 05:22:33;;;;;;;;;7.25;7.00;;;;;5.99;100.00;98543.69;6322402;20;1809778;-48
2024/03/25 05:24:59;;;;;;;;;7.00;4.00;;;;;7.22;100.00;98552.75;6301444;20;2748155;-52
2024/03/25 05:27:27;;;;;;;;;5.50;5.50;;;;;7.19;97.68;98554.78;6290280;20;1823323;-49
2024/03/25 05:29:54;;;;;;;;;6.00;6.00;;;;;6.27;100.00;98547.34;6323125;20;1803348;-53
2024/03/25 05:32:21;;;;;;;;;8.00;7.00;;;;;6.03;100.00;98547.03;6304582;20;2748220;-49
2024/03/25 05:34:49;;;;;;;;;8.25;7.00;;;;;6.11;100.00;98550.09;6319153;20;1811895;-47
2024/03/25 05:37:15;;;;;;;;;9.00;9.00;;;;;6.10;100.00;98549.22;6303564;20;2748233;-48
2024/03/25 05:39:42;;;;;;;;;12.00;6.00;;;;;6.06;100.00;98549.53;6272370;20;2769045;-47
2024/03/25 05:42:08;;;;;;;;;9.00;8.00;;;;;6.27;100.00;98566.00;6271675;20;2748179;-50
2024/03/25 05:44:35;;;;;;;;;7.00;6.00;;;;;5.87;100.00;98563.03;6271056;20;2740041;-48
2024/03/25 05:47:03;;;;;;;;;7.00;6.00;;;;;5.70;100.00;98561.41;6320582;20;1819294;-47
2024/03/25 05:49:30;;;;;;;;;3.00;3.00;;;;;5.64;100.00;98567.13;6320014;20;1811858;-48
2024/03/25 05:51:57;;;;;;;;;4.25;4.25;;;;;5.56;100.00;98558.72;6319671;20;1817144;-47
2024/03/25 05:54:24;;;;;;;;;6.00;6.00;;;;;5.79;100.00;98560.84;6303924;20;2746265;-48
2024/03/25 05:56:51;;;;;;;;;7.75;7.00;;;;;5.65;100.00;98564.34;6319646;20;1812333;-47
2024/03/25 05:59:18;;;;;;;;;8.00;8.00;;;;;5.71;100.00;98564.00;6303235;20;2738809;-47
2024/03/25 06:01:45;;;;;;;;;8.00;7.00;;;;;5.67;100.00;98564.25;6288072;20;1816299;-48
2024/03/25 06:04:12;;;;;;;;;8.00;8.00;;;;;5.77;100.00;98570.75;6301346;20;2740011;-48
2024/03/25 06:06:40;;;;;;;;;9.00;9.00;;;;;5.72;100.00;98579.00;6343758;20;1810822;-46
2024/03/25 06:09:07;;;;;;;;;11.00;9.00;;;;;6.21;100.00;98580.53;6270020;20;2767998;-47
2024/03/25 06:11:34;;;;;;;;;8.00;5.00;;;;;5.93;100.00;98579.56;6270086;20;2757611;-46
2024/03/25 06:14:00;;;;;;;;;12.00;11.00;;;;;5.98;100.00;98575.75;6298318;20;2778444;-46
2024/03/25 06:16:29;;;;;;;;;11.20;11.20;;;;;6.13;100.00;98585.47;6297425;20;2792188;-46
2024/03/25 06:18:55;;;;;;;;;10.00;10.00;;;;;6.19;100.00;98578.91;6272160;20;2789911;-48
2024/03/25 06:21:23;;;;;;;;;15.00;12.00;;;;;6.03;100.00;98584.31;6274346;20;2794245;-49
2024/03/25 06:23:49;;;;;;;;;12.00;12.00;;;;;6.12;100.00;98581.97;6309515;20;2786714;-48
2024/03/25 06:26:16;;;;;;;;;14.00;9.00;;;;;6.42;100.00;98591.66;6273324;20;2770191;-48
2024/03/25 06:28:45;;;;;;;;;15.60;13.00;;;;;6.47;100.00;98588.72;6300152;20;2794081;-46
2024/03/25 06:34:17;;;;;;;;;21.83;15.33;;;;;7.01;99.93;98594.19;6329906;20;2824371;-48
2024/03/25 06:36:45;;;;;;;;;12.67;12.67;;;;;6.87;98.37;98588.88;6306766;20;2801450;-50
2024/03/25 06:39:12;;;;;;;;;13.00;11.00;;;;;7.21;98.42;98591.09;6309593;20;2788937;-48
2024/03/25 06:41:39;;;;;;;;;8.50;8.50;;;;;7.36;97.70;98601.72;6274156;20;2740586;-49
2024/03/25 06:44:05;;;;;;;;;10.00;8.00;;;;;7.65;96.27;98594.41;6306307;20;2738912;-48
2024/03/25 06:46:35;;;;;;;;;9.43;9.43;;;;;7.95;93.81;98602.16;6320241;20;1804529;-49
2024/03/25 06:49:02;;;;;;;;;12.00;9.00;;;;;8.20;94.48;98595.16;6307773;20;2767005;-49
2024/03/25 06:51:30;;;;;;;;;9.00;9.00;;;;;8.64;91.03;98597.41;6300455;20;2730502;-46
2024/03/25 06:54:00;;;;;;;;;8.25;6.00;;;;;8.34;91.30;98601.22;6325086;20;1812963;-48
2024/03/25 06:56:26;;;;;;;;;8.00;7.00;;;;;8.40;89.72;98596.44;6309350;20;2753417;-46
2024/03/25 06:58:53;;;;;;;;;5.00;5.00;;;;;8.73;88.67;98598.56;6279078;20;2738287;-51
2024/03/25 07:01:19;;;;;;;;;6.00;6.00;;;;;9.30;85.30;98603.34;6307666;20;2748227;-47
2024/03/25 07:03:47;;;;;;;;;7.00;4.50;;;;;9.44;84.16;98608.50;6277727;20;2744073;-47
2024/03/25 07:06:14;;;;;;;;;6.00;3.00;;;;;9.41;83.14;98605.22;6277919;20;2756565;-48
2024/03/25 07:08:40;;;;;;;;;4.50;4.50;;;;;9.39;84.43;98608.00;6278398;20;2752369;-49
2024/03/25 07:11:07;;;;;;;;;3.00;3.00;;;;;9.40;80.20;98615.09;6280368;20;2740404;-47
2024/03/25 07:13:34;;;;;;;;;3.00;3.00;;;;;10.33;80.81;98617.03;6326533;20;1809144;-46
2024/03/25 07:16:01;;;;;;;;;6.50;5.00;;;;;9.60;78.83;98613.59;6310050;20;2752385;-47
2024/03/25 07:18:27;;;;;;;;;4.00;4.00;;;;;10.11;77.75;98621.34;6284744;20;2744066;-46
2024/03/25 07:20:54;;;;;;;;;6.00;6.00;;;;;10.14;77.46;98625.63;6278550;20;2750324;-46
2024/03/25 07:23:20;;;;;;;;;4.00;4.00;;;;;10.32;78.66;98623.34;6276109;20;2752385;-48
2024/03/25 07:25:47;;;;;;;;;4.00;4.00;;;;;9.94;76.13;98624.44;6275369;20;2756567;-47
2024/03/25 07:28:13;;;;;;;;;5.00;3.00;;;;;9.42;76.71;98615.81;6277271;20;2741961;-46
2024/03/25 07:30:40;;;;;;;;;4.00;4.00;;;;;9.81;76.85;98616.47;6311201;20;2739898;-50
2024/03/25 07:33:07;;;;;;;;;3.00;3.00;;;;;10.02;76.51;98624.72;6294011;20;1805354;-47
2024/03/25 07:35:35;;;;;;;;;5.00;4.00;;;;;9.00;79.75;98617.13;6307787;20;2748252;-48
2024/03/25 07:38:03;;;;;;;;;5.00;3.00;;;;;8.94;81.88;98622.94;6278765;20;2748231;-48
2024/03/25 07:40:29;;;;;;;;;6.50;5.00;;;;;8.71;82.27;98617.38;6280314;20;2749254;-48
2024/03/25 07:42:56;;;;;;;;;3.00;3.00;;;;;8.75;82.17;98626.06;6276696;20;2752415;-48
2024/03/25 07:45:23;;;;;;;;;4.00;4.00;;;;;8.65;83.01;98628.53;6277141;20;2750382;-48
2024/03/25 07:47:49;;;;;;;;;3.00;3.00;;;;;8.97;80.64;98636.09;6278854;20;2739838;-49
2024/03/25 07:50:16;;;;;;;;;5.00;3.50;;;;;10.06;76.70;98630.72;6310431;20;2749278;-47
2024/03/25 07:52:43;;;;;;;;;4.75;3.75;;;;;10.09;75.00;98641.22;6294931;20;1810847;-47
2024/03/25 07:55:10;;;;;;;;;5.00;5.00;;;;;10.17;76.49;98649.53;6305918;20;2754477;-46
2024/03/25 07:57:36;;;;;;;;;4.00;4.00;;;;;10.92;72.31;98653.56;6275275;20;2749392;-50
2024/03/25 08:00:09;;;;;;;;;3.00;3.00;;;;;10.51;71.16;98649.63;6280303;20;2739893;-44
2024/03/25 08:02:37;;;;;;;;;3.00;3.00;;;;;11.03;72.31;98658.06;6295379;20;1811857;-46
2024/03/25 08:05:04;;;;;;;;;5.00;4.00;;;;;11.33;69.70;98652.06;6308480;20;2756648;-45
2024/03/25 08:07:30;;;;;;;;;3.00;3.00;;;;;11.23;70.80;98657.31;6278300;20;2729569;-44
2024/03/25 08:09:57;;;;;;;;;4.00;4.00;;;;;10.02;71.27;98634.59;6278923;20;2745564;-46
2024/03/25 08:12:23;;;;;;;;;4.00;4.00;;;;;11.01;69.03;98647.47;6276514;20;2756581;-47
2024/03/25 08:14:50;;;;;;;;;6.00;3.50;;;;;11.38;68.28;98647.16;6263344;20;2748286;-46
2024/03/25 08:17:17;;;;;;;;;4.00;4.00;;;;;11.49;66.73;98652.53;6267852;20;2754458;-45
2024/03/25 08:19:43;;;;;;;;;3.00;3.00;;;;;11.58;64.20;98649.06;6270494;20;2744131;-45
2024/03/25 08:22:10;;;;;;;;;3.00;3.00;;;;;11.47;66.03;98659.00;6268872;20;2732613;-48
2024/03/25 08:24:36;;;;;;;;;4.50;2.50;;;;;11.74;65.96;98655.84;6264244;20;2756678;-48
2024/03/25 08:27:03;;;;;;;;;5.00;4.00;;;;;10.89;67.23;98646.59;6269251;20;2749266;-49
2024/03/25 08:29:29;;;;;;;;;4.50;3.00;;;;;10.63;66.35;98648.66;6269168;20;2750301;-49
2024/03/25 08:31:56;;;;;;;;;4.00;4.00;;;;;11.39;65.64;98649.72;6267097;20;2746186;-46
2024/03/25 08:34:22;;;;;;;;;4.00;4.00;;;;;12.24;61.62;98658.84;6268858;20;2751426;-53
2024/03/25 08:36:49;;;;;;;;;6.00;4.00;;;;;11.46;65.59;98657.31;6269564;20;2748661;-50
2024/03/25 08:39:15;;;;;;;;;3.50;3.50;;;;;11.10;65.71;98657.44;6269923;20;2755673;-50
2024/03/25 08:41:42;;;;;;;;;4.50;3.00;;;;;11.57;63.10;98655.44;6266951;20;2741964;-48
2024/03/25 08:44:08;;;;;;;;;3.00;3.00;;;;;11.85;61.57;98661.22;6268462;20;2743029;-47
2024/03/25 08:46:35;;;;;;;;;4.00;4.00;;;;;11.63;62.97;98652.22;6268907;20;2743044;-50
2024/03/25 08:49:02;;;;;;;;;6.00;6.00;;;;;10.98;67.61;98659.31;6271280;20;2738839;-47
2024/03/25 08:51:28;;;;;;;;;3.00;3.00;;;;;11.86;64.65;98661.09;6269719;20;2741036;-46
2024/03/25 08:53:55;;;;;;;;;4.00;4.00;;;;;12.16;61.31;98664.88;6268538;20;2755599;-53
2024/03/25 08:56:21;;;;;;;;;5.00;5.00;;;;;11.49;62.22;98665.97;6269088;20;2748308;-50
2024/03/25 08:58:48;;;;;;;;;3.00;3.00;;;;;11.23;62.18;98668.06;6271078;20;2744125;-50
2024/03/25 09:01:16;;;;;;;;;2.50;2.50;;;;;12.22;59.18;98666.22;6270687;20;2733653;-50
2024/03/25 09:03:42;;;;;;;;;1.00;1.00;;;;;12.11;58.21;98667.13;6269042;20;2740912;-49
2024/03/25 09:06:09;;;;;;;;;6.00;4.00;;;;;12.22;56.75;98672.47;6269622;20;2745083;-47
2024/03/25 09:11:02;;;;;;;;;4.00;4.00;;;;;11.39;61.94;98665.00;6270630;20;2740052;-50
2024/03/25 09:11:24;;;;;;;;;4.00;4.00;;;;;10.97;61.91;98660.25;6267652;20;2753543;-48
2024/03/25 09:13:51;;;;;;;;;8.00;6.00;;;;;11.03;60.74;98666.13;6267617;20;2740937;-49
2024/03/25 09:16:18;;;;;;;;;9.50;5.00;;;;;12.26;58.18;98667.66;6267428;20;2753420;-49
2024/03/25 09:18:45;;;;;;;;;4.00;4.00;;;;;12.74;56.08;98661.72;6269477;20;2756569;-48
2024/03/25 09:21:12;;;;;;;;;5.00;5.00;;;;;12.45;55.72;98669.63;6269752;20;2743051;-47
2024/03/25 09:23:39;;;;;;;;;4.00;3.00;;;;;12.51;54.57;98661.91;6267652;20;2727489;-50
2024/03/25 09:26:05;;;;;;;;;5.50;4.00;;;;;12.57;53.18;98665.06;6269838;20;2746557;-50
2024/03/25 09:28:32;;;;;;;;;2.00;2.00;;;;;12.75;52.64;98671.53;6268783;20;2744045;-48
2024/03/25 09:30:58;;;;;;;;;4.50;4.50;;;;;11.81;55.87;98663.28;6269180;20;2739879;-48
2024/03/25 09:33:25;;;;;;;;;5.00;4.00;;;;;11.51;55.05;98665.84;6268642;20;2750535;-46
2024/03/25 09:35:52;;;;;;;;;4.50;4.00;;;;;11.45;57.79;98667.16;6264331;20;2748206;-50
2024/03/25 09:38:18;;;;;;;;;6.00;3.00;;;;;12.70;55.16;98669.25;6267235;20;2755623;-47
2024/03/25 09:40:45;;;;;;;;;8.00;5.00;;;;;12.84;53.92;98662.63;6267054;20;2750323;-48
2024/03/25 09:43:27;;;;;;;;;4.00;4.00;;;;;12.97;53.17;98665.13;6268162;20;2742063;-47
2024/03/25 09:45:58;;;;;;;;;4.50;4.50;;;;;13.84;51.95;98660.00;6266446;20;2733681;-48
2024/03/25 09:48:26;;;;;;;;;4.00;4.00;;;;;13.15;51.52;98652.72;6268127;20;2756666;-51
2024/03/25 09:50:53;;;;;;;;;4.00;4.00;;;;;13.45;50.49;98656.38;6268378;20;2752359;-47
2024/03/25 09:53:20;;;;;;;;;3.00;3.00;;;;;14.14;49.33;98652.78;6268729;20;2728435;-49
2024/03/25 09:55:49;;;;;;;;;4.00;4.00;;;;;13.59;50.13;98657.84;6268618;20;2748320;-49
2024/03/25 09:58:18;;;;;;;;;4.00;2.00;;;;;13.21;49.02;98659.41;6273623;20;2744165;-49
2024/03/25 10:00:46;;;;;;;;;3.00;3.00;;;;;12.59;51.64;98657.69;6269521;20;2734135;-49
2024/03/25 10:03:14;;;;;;;;;3.00;3.00;;;;;12.28;53.42;98654.94;6272289;20;2752452;-46
2024/03/25 10:05:41;;;;;;;;;4.00;4.00;;;;;12.37;52.72;98659.53;6271214;20;2756517;-48
2024/03/25 10:08:08;;;;;;;;;3.50;3.50;;;;;11.77;53.29;98660.97;6270604;20;2752416;-49
2024/03/25 10:10:37;;;;;;;;;3.50;3.00;;;;;10.85;58.57;98663.06;6275935;20;2744109;-50
2024/03/25 10:13:04;;;;;;;;;3.00;3.00;;;;;9.89;74.37;98675.72;6273562;20;2750928;-49
2024/03/25 10:15:34;;;;;;;;;4.00;4.00;;;;;9.51;79.67;98664.34;6270072;20;2756596;-47
2024/03/25 10:18:01;;;;;;;;;3.50;3.50;;;;;9.19;81.49;98665.72;6272324;20;2748195;-46
2024/03/25 10:20:27;;;;;;;;;5.00;5.00;;;;;9.31;83.92;98663.13;6270631;20;2747148;-50
2024/03/25 10:22:54;;;;;;;;;5.50;4.50;;;;;9.62;81.45;98651.00;6270369;20;2750374;-50
2024/03/25 10:25:30;;;;;;;;;6.00;5.00;;;;;10.81;75.67;98656.25;6269660;20;2744133;-51
2024/03/25 10:28:01;;;;;;;;;5.00;5.00;;;;;11.23;73.68;98657.31;6274628;20;2731710;-52
2024/03/25 10:30:29;;;;;;;;;7.00;7.00;;;;;12.40;71.07;98664.66;6271442;20;2748306;-47
2024/03/25 10:33:06;;;;;;;;;7.00;5.00;;;;;12.22;65.08;98653.63;6271552;20;2748269;-48
2024/03/25 10:35:39;;;;;;;;;5.00;5.00;;;;;12.46;63.93;98653.38;6270537;20;2748248;-49
2024/03/25 10:38:10;;;;;;;;;6.00;6.00;;;;;12.95;60.56;98643.72;6273564;20;2738889;-50
2024/03/25 10:40:39;;;;;;;;;4.00;4.00;;;;;12.99;60.88;98640.75;6272297;20;2744121;-50
2024/03/25 10:43:13;;;;;;;;;6.50;5.00;;;;;12.36;61.40;98647.06;6273314;20;2745211;-50
2024/03/25 10:45:49;;;;;;;;;5.00;5.00;;;;;12.75;59.04;98644.59;6269979;20;2738256;-51
2024/03/25 10:48:28;;;;;;;;;3.00;3.00;;;;;11.81;57.86;98639.09;6273190;20;2739295;-51
2024/03/25 10:50:56;;;;;;;;;3.00;3.00;;;;;12.94;52.96;98647.38;6271172;20;2742006;-52
2024/03/25 10:53:25;;;;;;;;;2.00;2.00;;;;;12.84;52.92;98640.25;6273092;20;2731578;-47
2024/03/25 10:55:55;;;;;;;;;2.50;2.50;;;;;13.08;51.89;98637.22;6269944;20;2756653;-48
2024/03/25 10:58:23;;;;;;;;;3.00;3.00;;;;;13.77;53.34;98631.91;6269520;20;2751369;-48
2024/03/25 11:00:56;;;;;;;;;7.20;6.00;;;;;13.57;51.60;98627.47;6296530;20;2740940;-52
2024/03/25 11:03:24;;;;;;;;;8.00;5.00;;;;;12.99;51.30;98632.66;6303502;20;2753437;-49
2024/03/25 11:05:51;;;;;;;;;4.00;4.00;;;;;13.82;50.30;98637.72;6272325;20;2747182;-48
2024/03/25 11:08:18;;;;;;;;;3.00;3.00;;;;;13.07;49.61;98635.53;6270997;20;2742026;-51
2024/03/25 11:10:47;;;;;;;;;4.00;3.00;;;;;13.47;48.15;98631.97;6272843;20;2741950;-47
2024/03/25 11:13:18;;;;;;;;;2.00;2.00;;;;;13.47;49.11;98632.81;6269938;20;2743011;-48
2024/03/25 11:15:48;;;;;;;;;4.00;4.00;;;;;12.78;49.62;98638.94;6269805;20;2752355;-49
2024/03/25 11:18:18;;;;;;;;;3.00;3.00;;;;;11.83;54.95;98653.28;6270444;20;2743135;-47